sensor_id;sensor_type;location;lat;lon;timestamp;temperature;humidity
1429;DHT22;708;51.442;7.016;2024-01-10T00:01:04;-3.20;99.90
1429;DHT22;708;51.442;7.016;2024-01-10T00:03:31;-3.20;99.90
1429;DHT22;708;51.442;7.016;2024-01-10T00:05:58;-3.20;99.90
1429;DHT22;708;51.442;7.016;2024-01-10T00:08:27;-3.20;99.90
1429;DHT22;708;51.442;7.016;2024-01-10T00:10:55;-3.20;99.90
1429;DHT22;708;51.442;7.016;2024-01-10T00:13:22;-3.20;99.90
1429;DHT22;708;51.442;7.016;2024-01-10T00:15:48;-3.20;99.90
1429;DHT22;708;51.442;7.016;2024-01-10T00:18:15;-3.30;99.90
1429;DHT22;708;51.442;7.016;2024-01-10T00:20:42;-3.30;99.90
1429;DHT22;708;51.442;7.016;2024-01-10T00:23:09;-3.30;99.90
1429;DHT22;708;51.442;7.016;2024-01-10T00:25:36;-3.30;99.90
1429;DHT22;708;51.442;7.016;2024-01-10T00:28:05;-3.20;99.90
1429;DHT22;708;51.442;7.016;2024-01-10T00:30:31;-3.20;99.90
1429;DHT22;708;51.442;7.016;2024-01-10T00:32:58;-3.20;99.90
1429;DHT22;708;51.442;7.016;2024-01-10T00:35:25;-3.20;99.90
1429;DHT22;708;51.442;7.016;2024-01-10T00:37:52;-3.20;99.90
1429;DHT22;708;51.442;7.016;2024-01-10T00:40:19;-3.20;99.90
1429;DHT22;708;51.442;7.016;2024-01-10T00:42:46;-3.20;99.90
1429;DHT22;708;51.442;7.016;2024-01-10T00:45:16;-3.20;99.90
1429;DHT22;708;51.442;7.016;2024-01-10T00:47:43;-3.20;99.90
1429;DHT22;708;51.442;7.016;2024-01-10T00:50:10;-3.20;99.90
1429;DHT22;708;51.442;7.016;2024-01-10T00:52:36;-3.20;99.90
1429;DHT22;708;51.442;7.016;2024-01-10T00:55:04;-3.20;99.90
1429;DHT22;708;51.442;7.016;2024-01-10T00:57:31;-3.10;99.90
1429;DHT22;708;51.442;7.016;2024-01-10T00:59:58;-3.10;99.90
1429;DHT22;708;51.442;7.016;2024-01-10T01:02:26;-3.10;99.90
1429;DHT22;708;51.442;7.016;2024-01-10T01:04:53;-3.10;99.90
1429;DHT22;708;51.442;7.016;2024-01-10T01:07:20;-3.10;99.90
1429;DHT22;708;51.442;7.016;2024-01-10T01:09:47;-3.10;99.90
1429;DHT22;708;51.442;7.016;2024-01-10T01:12:14;-3.20;99.90
1429;DHT22;708;51.442;7.016;2024-01-10T01:14:41;-3.10;99.90
1429;DHT22;708;51.442;7.016;2024-01-10T01:17:08;-3.20;99.90
1429;DHT22;708;51.442;7.016;2024-01-10T01:19:36;-3.20;99.90
1429;DHT22;708;51.442;7.016;2024-01-10T01:22:03;-3.20;99.90
1429;DHT22;708;51.442;7.016;2024-01-10T01:24:30;-3.20;99.90
1429;DHT22;708;51.442;7.016;2024-01-10T01:26:56;-3.30;99.90
1429;DHT22;708;51.442;7.016;2024-01-10T01:29:23;-3.30;99.90
1429;DHT22;708;51.442;7.016;2024-01-10T01:31:50;-3.40;99.90
1429;DHT22;708;51.442;7.016;2024-01-10T01:34:17;-3.40;99.90
1429;DHT22;708;51.442;7.016;2024-01-10T01:36:46;-3.30;99.90
1429;DHT22;708;51.442;7.016;2024-01-10T01:39:13;-3.40;99.90
1429;DHT22;708;51.442;7.016;2024-01-10T01:41:40;-3.40;99.90
1429;DHT22;708;51.442;7.016;2024-01-10T01:44:06;-3.40;99.90
1429;DHT22;708;51.442;7.016;2024-01-10T01:46:33;-3.40;99.90
1429;DHT22;708;51.442;7.016;2024-01-10T01:49:01;-3.40;99.90
1429;DHT22;708;51.442;7.016;2024-01-10T01:51:29;-3.40;99.90
1429;DHT22;708;51.442;7.016;2024-01-10T01:53:59;-3.40;99.90
1429;DHT22;708;51.442;7.016;2024-01-10T01:56:26;-3.50;99.90
1429;DHT22;708;51.442;7.016;2024-01-10T01:58:54;-3.50;99.90
1429;DHT22;708;51.442;7.016;2024-01-10T02:01:22;-3.50;99.90
1429;DHT22;708;51.442;7.016;2024-01-10T02:03:48;-3.50;99.90
1429;DHT22;708;51.442;7.016;2024-01-10T02:06:15;-3.50;99.90
1429;DHT22;708;51.442;7.016;2024-01-10T02:08:42;-3.50;99.90
1429;DHT22;708;51.442;7.016;2024-01-10T02:11:10;-3.60;99.90
1429;DHT22;708;51.442;7.016;2024-01-10T02:13:37;-3.60;99.90
1429;DHT22;708;51.442;7.016;2024-01-10T02:16:05;-3.70;99.90
1429;DHT22;708;51.442;7.016;2024-01-10T02:18:32;-3.70;99.90
1429;DHT22;708;51.442;7.016;2024-01-10T02:21:00;-3.70;99.90
1429;DHT22;708;51.442;7.016;2024-01-10T02:23:27;-3.70;99.90
1429;DHT22;708;51.442;7.016;2024-01-10T02:25:55;-3.80;99.90
1429;DHT22;708;51.442;7.016;2024-01-10T02:28:22;-3.80;99.90
1429;DHT22;708;51.442;7.016;2024-01-10T02:30:49;-3.80;99.90
1429;DHT22;708;51.442;7.016;2024-01-10T02:33:17;-3.90;99.90
1429;DHT22;708;51.442;7.016;2024-01-10T02:35:44;-3.90;99.90
1429;DHT22;708;51.442;7.016;2024-01-10T02:38:11;-3.90;99.90
1429;DHT22;708;51.442;7.016;2024-01-10T02:40:37;-3.90;99.90
1429;DHT22;708;51.442;7.016;2024-01-10T02:43:05;-3.90;99.90
1429;DHT22;708;51.442;7.016;2024-01-10T02:45:33;-3.90;99.90
1429;DHT22;708;51.442;7.016;2024-01-10T02:48:01;-4.00;99.90
1429;DHT22;708;51.442;7.016;2024-01-10T02:50:28;-4.00;99.90
1429;DHT22;708;51.442;7.016;2024-01-10T02:52:54;-4.10;99.90
1429;DHT22;708;51.442;7.016;2024-01-10T02:55:21;-4.00;99.90
1429;DHT22;708;51.442;7.016;2024-01-10T02:57:48;-4.10;99.90
1429;DHT22;708;51.442;7.016;2024-01-10T03:00:16;-4.20;99.90
1429;DHT22;708;51.442;7.016;2024-01-10T03:02:43;-4.20;99.90
1429;DHT22;708;51.442;7.016;2024-01-10T03:05:10;-4.20;99.90
1429;DHT22;708;51.442;7.016;2024-01-10T03:07:37;-4.20;99.90
1429;DHT22;708;51.442;7.016;2024-01-10T03:10:04;-4.20;99.90
1429;DHT22;708;51.442;7.016;2024-01-10T03:12:31;-4.20;99.90
1429;DHT22;708;51.442;7.016;2024-01-10T03:15:02;-4.20;99.90
1429;DHT22;708;51.442;7.016;2024-01-10T03:17:30;-4.30;99.90
1429;DHT22;708;51.442;7.016;2024-01-10T03:19:59;-4.30;99.90
1429;DHT22;708;51.442;7.016;2024-01-10T03:22:26;-4.30;99.90
1429;DHT22;708;51.442;7.016;2024-01-10T03:24:52;-4.30;99.90
1429;DHT22;708;51.442;7.016;2024-01-10T03:39:37;-4.50;99.90
1429;DHT22;708;51.442;7.016;2024-01-10T03:42:03;-4.50;99.90
1429;DHT22;708;51.442;7.016;2024-01-10T03:44:31;-4.50;99.90
1429;DHT22;708;51.442;7.016;2024-01-10T03:46:57;-4.70;99.90
1429;DHT22;708;51.442;7.016;2024-01-10T03:49:24;-4.70;99.90
1429;DHT22;708;51.442;7.016;2024-01-10T03:51:59;-4.70;99.90
1429;DHT22;708;51.442;7.016;2024-01-10T03:54:31;-4.70;99.90
1429;DHT22;708;51.442;7.016;2024-01-10T03:56:59;-4.70;99.90
1429;DHT22;708;51.442;7.016;2024-01-10T03:59:26;-4.80;99.90
1429;DHT22;708;51.442;7.016;2024-01-10T04:01:53;-4.70;99.90
1429;DHT22;708;51.442;7.016;2024-01-10T04:04:19;-4.70;99.90
1429;DHT22;708;51.442;7.016;2024-01-10T04:06:47;-4.70;99.90
1429;DHT22;708;51.442;7.016;2024-01-10T04:09:16;-4.70;99.90
1429;DHT22;708;51.442;7.016;2024-01-10T04:11:42;-4.80;99.90
1429;DHT22;708;51.442;7.016;2024-01-10T04:14:09;-4.80;99.90
1429;DHT22;708;51.442;7.016;2024-01-10T04:16:36;-4.90;99.90
1429;DHT22;708;51.442;7.016;2024-01-10T04:19:03;-4.90;99.90
1429;DHT22;708;51.442;7.016;2024-01-10T04:21:30;-4.90;99.90
1429;DHT22;708;51.442;7.016;2024-01-10T04:23:57;-4.90;99.90
1429;DHT22;708;51.442;7.016;2024-01-10T04:26:25;-4.80;99.90
1429;DHT22;708;51.442;7.016;2024-01-10T04:28:52;-4.70;99.90
1429;DHT22;708;51.442;7.016;2024-01-10T04:31:19;-4.80;99.90
1429;DHT22;708;51.442;7.016;2024-01-10T04:33:46;-4.80;99.90
1429;DHT22;708;51.442;7.016;2024-01-10T04:36:13;-4.80;99.90
1429;DHT22;708;51.442;7.016;2024-01-10T04:38:39;-4.80;99.90
1429;DHT22;708;51.442;7.016;2024-01-10T04:41:06;-4.70;99.90
1429;DHT22;708;51.442;7.016;2024-01-10T04:43:34;-4.70;99.90
1429;DHT22;708;51.442;7.016;2024-01-10T04:46:01;-4.80;99.90
1429;DHT22;708;51.442;7.016;2024-01-10T04:48:28;-4.70;99.90
1429;DHT22;708;51.442;7.016;2024-01-10T04:50:55;-4.80;99.90
1429;DHT22;708;51.442;7.016;2024-01-10T04:53:22;-4.70;99.90
1429;DHT22;708;51.442;7.016;2024-01-10T04:55:49;-4.70;99.90
1429;DHT22;708;51.442;7.016;2024-01-10T04:58:16;-4.70;99.90
1429;DHT22;708;51.442;7.016;2024-01-10T05:00:45;-4.70;99.90
1429;DHT22;708;51.442;7.016;2024-01-10T05:03:12;-4.80;99.90
1429;DHT22;708;51.442;7.016;2024-01-10T05:05:38;-4.80;99.90
1429;DHT22;708;51.442;7.016;2024-01-10T05:08:06;-4.80;99.90
1429;DHT22;708;51.442;7.016;2024-01-10T05:10:33;-4.80;99.90
1429;DHT22;708;51.442;7.016;2024-01-10T05:13:02;-4.80;99.90
1429;DHT22;708;51.442;7.016;2024-01-10T05:15:29;-4.80;99.90
1429;DHT22;708;51.442;7.016;2024-01-10T05:17:57;-4.70;99.90
1429;DHT22;708;51.442;7.016;2024-01-10T05:20:24;-4.70;99.90
1429;DHT22;708;51.442;7.016;2024-01-10T05:22:51;-4.70;99.90
1429;DHT22;708;51.442;7.016;2024-01-10T05:25:18;-4.70;99.90
1429;DHT22;708;51.442;7.016;2024-01-10T05:27:44;-4.70;99.90
1429;DHT22;708;51.442;7.016;2024-01-10T05:30:12;-4.70;99.90
1429;DHT22;708;51.442;7.016;2024-01-10T05:32:39;-4.60;99.90
1429;DHT22;708;51.442;7.016;2024-01-10T05:35:08;-4.60;99.90
1429;DHT22;708;51.442;7.016;2024-01-10T05:37:35;-4.60;99.90
1429;DHT22;708;51.442;7.016;2024-01-10T05:40:03;-4.60;99.90
1429;DHT22;708;51.442;7.016;2024-01-10T05:42:30;-4.60;99.90
1429;DHT22;708;51.442;7.016;2024-01-10T05:44:58;-4.60;99.90
1429;DHT22;708;51.442;7.016;2024-01-10T05:47:25;-4.60;99.90
1429;DHT22;708;51.442;7.016;2024-01-10T05:49:52;-4.60;99.90
1429;DHT22;708;51.442;7.016;2024-01-10T05:52:20;-4.60;99.90
1429;DHT22;708;51.442;7.016;2024-01-10T05:54:48;-4.60;99.90
1429;DHT22;708;51.442;7.016;2024-01-10T05:57:15;-4.60;99.90
1429;DHT22;708;51.442;7.016;2024-01-10T05:59:41;-4.60;99.90
1429;DHT22;708;51.442;7.016;2024-01-10T06:02:08;-4.60;99.90
1429;DHT22;708;51.442;7.016;2024-01-10T06:04:35;-4.60;99.90
1429;DHT22;708;51.442;7.016;2024-01-10T06:07:05;-4.60;99.90
1429;DHT22;708;51.442;7.016;2024-01-10T06:09:33;-4.60;99.90
1429;DHT22;708;51.442;7.016;2024-01-10T06:12:00;-4.60;99.90
1429;DHT22;708;51.442;7.016;2024-01-10T06:14:27;-4.60;99.90
1429;DHT22;708;51.442;7.016;2024-01-10T06:16:54;-4.60;99.90
1429;DHT22;708;51.442;7.016;2024-01-10T06:19:20;-4.60;99.90
1429;DHT22;708;51.442;7.016;2024-01-10T06:21:47;-4.60;99.90
1429;DHT22;708;51.442;7.016;2024-01-10T06:24:14;-4.60;99.90
1429;DHT22;708;51.442;7.016;2024-01-10T06:26:42;-4.60;99.90
1429;DHT22;708;51.442;7.016;2024-01-10T06:29:09;-4.60;99.90
1429;DHT22;708;51.442;7.016;2024-01-10T06:31:36;-4.60;99.90
1429;DHT22;708;51.442;7.016;2024-01-10T06:34:02;-4.60;99.90
1429;DHT22;708;51.442;7.016;2024-01-10T06:36:29;-4.60;99.90
1429;DHT22;708;51.442;7.016;2024-01-10T06:38:56;-4.50;99.90
1429;DHT22;708;51.442;7.016;2024-01-10T06:41:23;-4.50;99.90
1429;DHT22;708;51.442;7.016;2024-01-10T06:43:51;-4.60;99.90
1429;DHT22;708;51.442;7.016;2024-01-10T06:46:18;-4.60;99.90
1429;DHT22;708;51.442;7.016;2024-01-10T06:48:46;-4.50;99.90
1429;DHT22;708;51.442;7.016;2024-01-10T06:51:13;-4.50;99.90
1429;DHT22;708;51.442;7.016;2024-01-10T06:53:41;-4.50;99.90
1429;DHT22;708;51.442;7.016;2024-01-10T06:56:09;-4.50;99.90
1429;DHT22;708;51.442;7.016;2024-01-10T06:58:36;-4.50;99.90
1429;DHT22;708;51.442;7.016;2024-01-10T07:01:04;-4.60;99.90
1429;DHT22;708;51.442;7.016;2024-01-10T07:03:31;-4.60;99.90
1429;DHT22;708;51.442;7.016;2024-01-10T07:06:00;-4.60;99.90
1429;DHT22;708;51.442;7.016;2024-01-10T07:08:27;-4.60;99.90
1429;DHT22;708;51.442;7.016;2024-01-10T07:10:56;-4.60;99.90
1429;DHT22;708;51.442;7.016;2024-01-10T07:13:23;-4.60;99.90
1429;DHT22;708;51.442;7.016;2024-01-10T07:15:49;-4.60;99.90
1429;DHT22;708;51.442;7.016;2024-01-10T07:18:19;-4.60;99.90
1429;DHT22;708;51.442;7.016;2024-01-10T07:20:46;-4.60;99.90
1429;DHT22;708;51.442;7.016;2024-01-10T07:23:13;-4.60;99.90
1429;DHT22;708;51.442;7.016;2024-01-10T07:25:40;-4.60;99.90
1429;DHT22;708;51.442;7.016;2024-01-10T07:28:06;-4.50;99.90
1429;DHT22;708;51.442;7.016;2024-01-10T07:30:33;-4.50;99.90
1429;DHT22;708;51.442;7.016;2024-01-10T07:33:00;-4.50;99.90
1429;DHT22;708;51.442;7.016;2024-01-10T07:35:28;-4.50;99.90
1429;DHT22;708;51.442;7.016;2024-01-10T07:38:01;-4.50;99.90
1429;DHT22;708;51.442;7.016;2024-01-10T07:40:33;-4.50;99.90
1429;DHT22;708;51.442;7.016;2024-01-10T07:43:00;-4.50;99.90
1429;DHT22;708;51.442;7.016;2024-01-10T07:45:27;-4.50;99.90
1429;DHT22;708;51.442;7.016;2024-01-10T07:47:58;-4.50;99.90
1429;DHT22;708;51.442;7.016;2024-01-10T07:50:25;-4.50;99.90
1429;DHT22;708;51.442;7.016;2024-01-10T07:52:54;-4.50;99.90
1429;DHT22;708;51.442;7.016;2024-01-10T07:55:21;-4.40;99.90
1429;DHT22;708;51.442;7.016;2024-01-10T07:57:48;-4.40;99.90
1429;DHT22;708;51.442;7.016;2024-01-10T08:00:16;-4.40;99.90
1429;DHT22;708;51.442;7.016;2024-01-10T08:02:45;-4.40;99.90
1429;DHT22;708;51.442;7.016;2024-01-10T08:05:13;-4.40;99.90
1429;DHT22;708;51.442;7.016;2024-01-10T08:07:39;-4.40;99.90
1429;DHT22;708;51.442;7.016;2024-01-10T08:10:09;-4.40;99.90
1429;DHT22;708;51.442;7.016;2024-01-10T08:12:37;-4.40;99.90
1429;DHT22;708;51.442;7.016;2024-01-10T08:15:05;-4.30;99.90
1429;DHT22;708;51.442;7.016;2024-01-10T08:17:33;-4.30;99.90
1429;DHT22;708;51.442;7.016;2024-01-10T08:20:01;-4.20;99.90
1429;DHT22;708;51.442;7.016;2024-01-10T08:22:29;-4.10;99.90
1429;DHT22;708;51.442;7.016;2024-01-10T08:24:56;-4.10;99.90
1429;DHT22;708;51.442;7.016;2024-01-10T08:27:25;-4.00;99.90
1429;DHT22;708;51.442;7.016;2024-01-10T08:29:52;-3.90;99.90
1429;DHT22;708;51.442;7.016;2024-01-10T08:32:18;-3.70;99.90
1429;DHT22;708;51.442;7.016;2024-01-10T08:34:47;-3.40;99.90
1429;DHT22;708;51.442;7.016;2024-01-10T08:37:14;-2.80;99.90
1429;DHT22;708;51.442;7.016;2024-01-10T08:39:42;-2.30;99.90
1429;DHT22;708;51.442;7.016;2024-01-10T08:42:09;-2.10;99.90
1429;DHT22;708;51.442;7.016;2024-01-10T08:44:38;-1.70;99.90
1429;DHT22;708;51.442;7.016;2024-01-10T08:47:05;-1.10;99.90
1429;DHT22;708;51.442;7.016;2024-01-10T08:49:31;-0.50;99.90
1429;DHT22;708;51.442;7.016;2024-01-10T08:51:58;0.00;99.90
1429;DHT22;708;51.442;7.016;2024-01-10T08:54:25;0.20;99.90
1429;DHT22;708;51.442;7.016;2024-01-10T08:56:52;0.50;99.90
1429;DHT22;708;51.442;7.016;2024-01-10T08:59:19;0.80;99.90
1429;DHT22;708;51.442;7.016;2024-01-10T09:01:48;1.10;99.90
1429;DHT22;708;51.442;7.016;2024-01-10T09:04:15;1.40;99.90
1429;DHT22;708;51.442;7.016;2024-01-10T09:06:42;1.80;99.90
1429;DHT22;708;51.442;7.016;2024-01-10T09:09:09;2.10;99.90
1429;DHT22;708;51.442;7.016;2024-01-10T09:11:38;2.30;99.90
1429;DHT22;708;51.442;7.016;2024-01-10T09:14:05;2.40;99.90
1429;DHT22;708;51.442;7.016;2024-01-10T09:16:32;2.30;99.90
1429;DHT22;708;51.442;7.016;2024-01-10T09:19:00;2.40;99.90
1429;DHT22;708;51.442;7.016;2024-01-10T09:21:27;2.50;99.90
1429;DHT22;708;51.442;7.016;2024-01-10T09:23:54;2.90;99.90
1429;DHT22;708;51.442;7.016;2024-01-10T09:26:22;3.00;99.90
1429;DHT22;708;51.442;7.016;2024-01-10T09:28:49;3.40;99.90
1429;DHT22;708;51.442;7.016;2024-01-10T09:31:16;3.30;99.90
1429;DHT22;708;51.442;7.016;2024-01-10T09:33:42;3.20;99.90
1429;DHT22;708;51.442;7.016;2024-01-10T09:36:11;3.10;99.90
1429;DHT22;708;51.442;7.016;2024-01-10T09:38:38;3.40;99.90
1429;DHT22;708;51.442;7.016;2024-01-10T09:41:05;3.70;99.90
1429;DHT22;708;51.442;7.016;2024-01-10T09:43:32;4.00;99.90
1429;DHT22;708;51.442;7.016;2024-01-10T09:46:00;4.10;99.90
1429;DHT22;708;51.442;7.016;2024-01-10T09:48:29;4.20;99.90
1429;DHT22;708;51.442;7.016;2024-01-10T09:50:56;4.20;99.90
1429;DHT22;708;51.442;7.016;2024-01-10T09:53:26;4.20;99.90
1429;DHT22;708;51.442;7.016;2024-01-10T09:55:53;3.80;99.90
1429;DHT22;708;51.442;7.016;2024-01-10T09:58:23;3.80;99.90
1429;DHT22;708;51.442;7.016;2024-01-10T10:00:50;3.70;99.90
1429;DHT22;708;51.442;7.016;2024-01-10T10:03:18;3.50;99.90
1429;DHT22;708;51.442;7.016;2024-01-10T10:05:45;3.40;99.90
1429;DHT22;708;51.442;7.016;2024-01-10T10:08:13;3.50;99.90
1429;DHT22;708;51.442;7.016;2024-01-10T10:10:42;3.60;99.90
1429;DHT22;708;51.442;7.016;2024-01-10T10:13:10;3.50;99.90
1429;DHT22;708;51.442;7.016;2024-01-10T10:15:57;3.20;99.90
1429;DHT22;708;51.442;7.016;2024-01-10T10:18:25;2.70;99.90
1429;DHT22;708;51.442;7.016;2024-01-10T10:21:06;2.50;99.90
1429;DHT22;708;51.442;7.016;2024-01-10T10:23:33;2.00;99.90
1429;DHT22;708;51.442;7.016;2024-01-10T10:26:10;1.60;99.90
1429;DHT22;708;51.442;7.016;2024-01-10T10:28:40;0.90;99.90
1429;DHT22;708;51.442;7.016;2024-01-10T10:31:07;0.40;99.90
1429;DHT22;708;51.442;7.016;2024-01-10T10:33:34;0.10;99.90
1429;DHT22;708;51.442;7.016;2024-01-10T10:36:01;-0.10;99.90
1429;DHT22;708;51.442;7.016;2024-01-10T10:38:28;-0.30;99.90
1429;DHT22;708;51.442;7.016;2024-01-10T10:40:56;-0.30;99.90
1429;DHT22;708;51.442;7.016;2024-01-10T10:43:26;-0.30;99.90
1429;DHT22;708;51.442;7.016;2024-01-10T10:45:56;-0.40;99.90
1429;DHT22;708;51.442;7.016;2024-01-10T10:48:25;-0.60;99.90
1429;DHT22;708;51.442;7.016;2024-01-10T10:50:58;-0.70;99.90
1429;DHT22;708;51.442;7.016;2024-01-10T10:53:27;-0.60;99.90
1429;DHT22;708;51.442;7.016;2024-01-10T10:55:55;-0.60;99.90
1429;DHT22;708;51.442;7.016;2024-01-10T10:58:23;-0.60;99.90
1429;DHT22;708;51.442;7.016;2024-01-10T11:00:52;-0.70;99.90
1429;DHT22;708;51.442;7.016;2024-01-10T11:03:20;-0.60;99.90
1429;DHT22;708;51.442;7.016;2024-01-10T11:05:49;-0.40;99.90
1429;DHT22;708;51.442;7.016;2024-01-10T11:08:18;-0.30;99.90
1429;DHT22;708;51.442;7.016;2024-01-10T11:10:46;-0.30;99.90
1429;DHT22;708;51.442;7.016;2024-01-10T11:13:28;-0.30;99.90
1429;DHT22;708;51.442;7.016;2024-01-10T11:16:35;-0.30;99.90
1429;DHT22;708;51.442;7.016;2024-01-10T11:19:20;-0.20;99.90
1429;DHT22;708;51.442;7.016;2024-01-10T11:22:09;-0.10;99.90
1429;DHT22;708;51.442;7.016;2024-01-10T11:24:37;0.00;99.90
1429;DHT22;708;51.442;7.016;2024-01-10T11:27:07;-0.10;99.90
1429;DHT22;708;51.442;7.016;2024-01-10T11:29:37;0.00;99.90
1429;DHT22;708;51.442;7.016;2024-01-10T11:32:06;0.10;99.90
1429;DHT22;708;51.442;7.016;2024-01-10T11:34:35;0.20;99.90
1429;DHT22;708;51.442;7.016;2024-01-10T11:37:11;0.10;99.90
1429;DHT22;708;51.442;7.016;2024-01-10T11:39:41;0.20;99.90
1429;DHT22;708;51.442;7.016;2024-01-10T11:42:08;0.20;99.90
1429;DHT22;708;51.442;7.016;2024-01-10T11:44:46;0.30;99.90
1429;DHT22;708;51.442;7.016;2024-01-10T11:47:15;0.30;99.90
1429;DHT22;708;51.442;7.016;2024-01-10T11:49:53;0.30;99.90
1429;DHT22;708;51.442;7.016;2024-01-10T11:52:22;0.40;99.90
1429;DHT22;708;51.442;7.016;2024-01-10T11:54:49;0.60;99.90
1429;DHT22;708;51.442;7.016;2024-01-10T11:57:21;0.70;99.90
1429;DHT22;708;51.442;7.016;2024-01-10T11:59:50;0.70;99.90
1429;DHT22;708;51.442;7.016;2024-01-10T12:02:19;0.70;99.90
1429;DHT22;708;51.442;7.016;2024-01-10T12:04:47;0.90;99.90
1429;DHT22;708;51.442;7.016;2024-01-10T12:07:15;0.90;99.90
1429;DHT22;708;51.442;7.016;2024-01-10T12:09:42;0.80;99.90
1429;DHT22;708;51.442;7.016;2024-01-10T12:12:09;0.90;99.90
1429;DHT22;708;51.442;7.016;2024-01-10T12:14:37;0.80;99.90
1429;DHT22;708;51.442;7.016;2024-01-10T12:17:05;0.80;99.90
1429;DHT22;708;51.442;7.016;2024-01-10T12:19:35;0.80;99.90
1429;DHT22;708;51.442;7.016;2024-01-10T12:22:02;0.90;99.90
1429;DHT22;708;51.442;7.016;2024-01-10T12:24:31;1.00;99.90
1429;DHT22;708;51.442;7.016;2024-01-10T12:26:58;1.10;99.90
1429;DHT22;708;51.442;7.016;2024-01-10T12:29:25;1.10;99.90
1429;DHT22;708;51.442;7.016;2024-01-10T12:31:53;1.00;99.90
1429;DHT22;708;51.442;7.016;2024-01-10T12:34:20;1.10;99.90
1429;DHT22;708;51.442;7.016;2024-01-10T12:36:49;1.10;99.90
1429;DHT22;708;51.442;7.016;2024-01-10T12:39:20;1.10;99.90
1429;DHT22;708;51.442;7.016;2024-01-10T12:41:49;1.30;99.90
1429;DHT22;708;51.442;7.016;2024-01-10T12:44:16;1.20;99.90
1429;DHT22;708;51.442;7.016;2024-01-10T12:46:52;1.10;99.90
1429;DHT22;708;51.442;7.016;2024-01-10T12:49:19;1.10;99.90
1429;DHT22;708;51.442;7.016;2024-01-10T12:51:47;1.10;99.90
1429;DHT22;708;51.442;7.016;2024-01-10T12:54:15;1.20;99.90
1429;DHT22;708;51.442;7.016;2024-01-10T12:56:42;1.20;99.90
1429;DHT22;708;51.442;7.016;2024-01-10T12:59:10;1.30;99.90
1429;DHT22;708;51.442;7.016;2024-01-10T13:01:37;1.40;99.90
1429;DHT22;708;51.442;7.016;2024-01-10T13:04:04;1.40;99.90
1429;DHT22;708;51.442;7.016;2024-01-10T13:06:31;1.60;99.90
1429;DHT22;708;51.442;7.016;2024-01-10T13:08:58;1.60;99.90
1429;DHT22;708;51.442;7.016;2024-01-10T13:11:26;1.70;99.90
1429;DHT22;708;51.442;7.016;2024-01-10T13:13:53;1.60;99.90
1429;DHT22;708;51.442;7.016;2024-01-10T13:16:20;1.70;99.90
1429;DHT22;708;51.442;7.016;2024-01-10T13:18:45;1.60;99.90
1429;DHT22;708;51.442;7.016;2024-01-10T13:21:12;1.60;99.90
1429;DHT22;708;51.442;7.016;2024-01-10T13:23:39;1.60;99.90
1429;DHT22;708;51.442;7.016;2024-01-10T13:26:07;1.60;99.90
1429;DHT22;708;51.442;7.016;2024-01-10T13:28:38;1.60;99.90
1429;DHT22;708;51.442;7.016;2024-01-10T13:31:06;1.60;99.90
1429;DHT22;708;51.442;7.016;2024-01-10T13:33:32;1.60;99.90
1429;DHT22;708;51.442;7.016;2024-01-10T13:35:59;1.50;99.90
1429;DHT22;708;51.442;7.016;2024-01-10T13:38:26;1.50;99.90
1429;DHT22;708;51.442;7.016;2024-01-10T13:40:53;1.40;99.90
1429;DHT22;708;51.442;7.016;2024-01-10T13:43:20;1.50;99.90
1429;DHT22;708;51.442;7.016;2024-01-10T13:45:48;1.50;99.90
1429;DHT22;708;51.442;7.016;2024-01-10T13:48:15;1.50;99.90
1429;DHT22;708;51.442;7.016;2024-01-10T13:50:42;1.50;99.90
1429;DHT22;708;51.442;7.016;2024-01-10T13:53:09;1.50;99.90
1429;DHT22;708;51.442;7.016;2024-01-10T13:55:35;1.50;99.90
1429;DHT22;708;51.442;7.016;2024-01-10T13:58:02;1.40;99.90
1429;DHT22;708;51.442;7.016;2024-01-10T14:00:29;1.50;99.90
1429;DHT22;708;51.442;7.016;2024-01-10T14:02:58;1.40;99.90
1429;DHT22;708;51.442;7.016;2024-01-10T14:05:26;1.40;99.90
1429;DHT22;708;51.442;7.016;2024-01-10T14:07:53;1.40;99.90
1429;DHT22;708;51.442;7.016;2024-01-10T14:10:20;1.40;99.90
1429;DHT22;708;51.442;7.016;2024-01-10T14:12:48;1.30;99.90
1429;DHT22;708;51.442;7.016;2024-01-10T14:15:14;1.40;99.90
1429;DHT22;708;51.442;7.016;2024-01-10T14:17:41;1.40;99.90
1429;DHT22;708;51.442;7.016;2024-01-10T14:20:10;1.40;99.90
1429;DHT22;708;51.442;7.016;2024-01-10T14:22:39;1.40;99.90
1429;DHT22;708;51.442;7.016;2024-01-10T14:25:07;1.40;99.90
1429;DHT22;708;51.442;7.016;2024-01-10T14:27:34;1.30;99.90
1429;DHT22;708;51.442;7.016;2024-01-10T14:30:04;1.20;99.90
1429;DHT22;708;51.442;7.016;2024-01-10T14:32:34;1.20;99.90
1429;DHT22;708;51.442;7.016;2024-01-10T14:35:01;1.20;99.90
1429;DHT22;708;51.442;7.016;2024-01-10T14:37:32;1.20;99.90
1429;DHT22;708;51.442;7.016;2024-01-10T14:40:00;1.20;99.90
1429;DHT22;708;51.442;7.016;2024-01-10T14:42:28;1.20;99.90
1429;DHT22;708;51.442;7.016;2024-01-10T14:44:54;1.20;99.90
1429;DHT22;708;51.442;7.016;2024-01-10T14:47:24;1.10;99.90
1429;DHT22;708;51.442;7.016;2024-01-10T14:49:51;1.20;99.90
1429;DHT22;708;51.442;7.016;2024-01-10T14:52:18;1.20;99.90
1429;DHT22;708;51.442;7.016;2024-01-10T14:54:47;1.30;99.90
1429;DHT22;708;51.442;7.016;2024-01-10T14:57:14;1.30;99.90
1429;DHT22;708;51.442;7.016;2024-01-10T14:59:42;1.30;99.90
1429;DHT22;708;51.442;7.016;2024-01-10T15:02:09;1.40;99.90
1429;DHT22;708;51.442;7.016;2024-01-10T15:04:39;1.40;99.90
1429;DHT22;708;51.442;7.016;2024-01-10T15:07:07;1.30;99.90
1429;DHT22;708;51.442;7.016;2024-01-10T15:09:34;1.30;99.90
1429;DHT22;708;51.442;7.016;2024-01-10T15:12:04;1.30;99.90
1429;DHT22;708;51.442;7.016;2024-01-10T15:14:33;1.30;99.90
1429;DHT22;708;51.442;7.016;2024-01-10T15:17:00;1.20;99.90
1429;DHT22;708;51.442;7.016;2024-01-10T15:19:30;1.20;99.90
1429;DHT22;708;51.442;7.016;2024-01-10T15:21:58;1.20;99.90
1429;DHT22;708;51.442;7.016;2024-01-10T15:24:25;1.10;99.90
1429;DHT22;708;51.442;7.016;2024-01-10T15:26:52;1.10;99.90
1429;DHT22;708;51.442;7.016;2024-01-10T15:29:20;1.10;99.90
1429;DHT22;708;51.442;7.016;2024-01-10T15:31:47;1.10;99.90
1429;DHT22;708;51.442;7.016;2024-01-10T15:34:14;1.10;99.90
1429;DHT22;708;51.442;7.016;2024-01-10T15:36:41;1.00;99.90
1429;DHT22;708;51.442;7.016;2024-01-10T15:39:08;1.00;99.90
1429;DHT22;708;51.442;7.016;2024-01-10T15:41:38;1.00;99.90
1429;DHT22;708;51.442;7.016;2024-01-10T15:44:05;1.00;99.90
1429;DHT22;708;51.442;7.016;2024-01-10T15:46:36;0.90;99.90
1429;DHT22;708;51.442;7.016;2024-01-10T15:49:02;0.90;99.90
1429;DHT22;708;51.442;7.016;2024-01-10T15:51:29;0.80;99.90
1429;DHT22;708;51.442;7.016;2024-01-10T15:53:56;0.80;99.90
1429;DHT22;708;51.442;7.016;2024-01-10T15:56:25;0.80;99.90
1429;DHT22;708;51.442;7.016;2024-01-10T15:58:52;0.80;99.90
1429;DHT22;708;51.442;7.016;2024-01-10T16:01:19;0.80;99.90
1429;DHT22;708;51.442;7.016;2024-01-10T16:03:47;0.80;99.90
1429;DHT22;708;51.442;7.016;2024-01-10T16:06:14;0.80;99.90
1429;DHT22;708;51.442;7.016;2024-01-10T16:08:42;0.80;99.90
1429;DHT22;708;51.442;7.016;2024-01-10T16:11:09;0.80;99.90
1429;DHT22;708;51.442;7.016;2024-01-10T16:13:36;0.70;99.90
1429;DHT22;708;51.442;7.016;2024-01-10T16:16:03;0.70;99.90
1429;DHT22;708;51.442;7.016;2024-01-10T16:18:35;0.70;99.90
1429;DHT22;708;51.442;7.016;2024-01-10T16:21:03;0.70;99.90
1429;DHT22;708;51.442;7.016;2024-01-10T16:23:31;0.70;99.90
1429;DHT22;708;51.442;7.016;2024-01-10T16:25:58;0.70;99.90
1429;DHT22;708;51.442;7.016;2024-01-10T16:28:25;0.60;99.90
1429;DHT22;708;51.442;7.016;2024-01-10T16:30:52;0.60;99.90
1429;DHT22;708;51.442;7.016;2024-01-10T16:33:19;0.60;99.90
1429;DHT22;708;51.442;7.016;2024-01-10T16:35:48;0.60;99.90
1429;DHT22;708;51.442;7.016;2024-01-10T16:38:17;0.70;99.90
1429;DHT22;708;51.442;7.016;2024-01-10T16:40:44;0.60;99.90